createdAt,value
2022-10-22T00:00:09.931Z,10.60
2022-10-22T00:02:56.903Z,11.68
2022-10-22T00:05:23.660Z,12.38
2022-10-22T00:07:50.577Z,11.88
2022-10-22T00:10:19.007Z,14.60
2022-10-22T00:12:46.079Z,12.23
2022-10-22T00:15:12.980Z,9.77
2022-10-22T00:17:40.119Z,10.60
2022-10-22T00:20:07.675Z,12.95
2022-10-22T00:22:34.619Z,10.35
2022-10-22T00:25:01.407Z,12.93
2022-10-22T00:27:28.423Z,15.60
2022-10-22T00:29:55.129Z,13.77
2022-10-22T00:32:22.067Z,16.52
2022-10-22T00:34:48.923Z,9.95
2022-10-22T00:37:15.913Z,11.82
2022-10-22T00:39:42.659Z,15.20
2022-10-22T00:42:23.662Z,12.15
2022-10-22T00:45:12.089Z,13.02
2022-10-22T00:48:09.915Z,11.88
2022-10-22T00:50:44.922Z,11.98
2022-10-22T00:53:16.624Z,10.60
2022-10-22T00:55:46.511Z,11.80
2022-10-22T00:58:14.119Z,10.40
2022-10-22T01:00:41.118Z,9.70
2022-10-22T01:03:08.550Z,10.50
2022-10-22T01:05:43.831Z,10.48
2022-10-22T01:08:25.379Z,11.52
2022-10-22T01:11:20.960Z,12.45
2022-10-22T01:14:24.337Z,9.18
2022-10-22T01:17:09.757Z,11.20
2022-10-22T01:20:14.082Z,13.48
2022-10-22T01:22:54.861Z,10.73
2022-10-22T01:25:29.948Z,17.88
2022-10-22T01:28:23.710Z,12.10
2022-10-22T01:30:54.507Z,29.77
2022-10-22T01:33:23.961Z,11.15
2022-10-22T01:35:51.932Z,10.10
2022-10-22T01:38:21.756Z,9.88
2022-10-22T01:40:50.456Z,10.52
2022-10-22T01:43:17.219Z,10.80
2022-10-22T01:45:54.109Z,9.32
2022-10-22T01:48:48.555Z,9.73
2022-10-22T01:51:30.564Z,14.48
2022-10-22T01:54:09.421Z,10.23
2022-10-22T01:56:42.312Z,10.98
2022-10-22T01:59:33.076Z,11.40
2022-10-22T02:02:02.591Z,11.30
2022-10-22T02:04:59.008Z,10.70
2022-10-22T02:07:31.714Z,17.25
2022-10-22T02:10:01.287Z,11.45
2022-10-22T02:12:33.203Z,8.80
2022-10-22T02:15:02.276Z,10.68
2022-10-22T02:17:34.984Z,10.65
2022-10-22T02:20:19.838Z,11.93
2022-10-22T02:22:47.353Z,11.55
2022-10-22T02:25:15.788Z,9.73
2022-10-22T02:27:51.747Z,13.20
2022-10-22T02:30:21.361Z,14.07
2022-10-22T02:33:01.712Z,11.50
2022-10-22T02:35:29.779Z,12.73
2022-10-22T02:37:58.540Z,10.98
2022-10-22T02:40:26.376Z,11.43
2022-10-22T02:42:53.412Z,12.93
2022-10-22T02:45:21.516Z,12.43
2022-10-22T02:47:48.462Z,8.48
2022-10-22T02:50:15.315Z,8.75
2022-10-22T02:52:42.526Z,11.02
2022-10-22T02:55:09.736Z,12.52
2022-10-22T02:57:36.765Z,15.30
2022-10-22T03:00:09.034Z,9.43
2022-10-22T03:02:35.966Z,11.70
2022-10-22T03:05:03.343Z,13.35
2022-10-22T03:07:30.271Z,12.68
2022-10-22T03:09:57.001Z,13.27
2022-10-22T03:12:23.919Z,15.68
2022-10-22T03:14:50.837Z,15.02
2022-10-22T03:17:18.934Z,10.38
2022-10-22T03:19:45.698Z,12.05
2022-10-22T03:22:20.012Z,11.15
2022-10-22T03:24:49.136Z,10.57
2022-10-22T03:27:18.382Z,12.52
2022-10-22T03:29:46.925Z,11.02
2022-10-22T03:32:13.867Z,14.27
2022-10-22T03:34:40.615Z,12.75
2022-10-22T03:37:07.680Z,10.93
2022-10-22T03:39:36.272Z,10.57
2022-10-22T03:42:05.345Z,10.82
2022-10-22T03:44:33.184Z,14.35
2022-10-22T03:47:02.568Z,10.20
2022-10-22T03:49:29.756Z,12.95
2022-10-22T03:51:56.749Z,15.98
2022-10-22T03:54:23.498Z,12.48
2022-10-22T03:56:50.414Z,13.18
2022-10-22T03:59:17.133Z,12.38
2022-10-22T04:01:44.079Z,12.95
2022-10-22T04:04:10.783Z,14.40
2022-10-22T04:06:37.782Z,12.48
2022-10-22T04:09:04.829Z,14.20
2022-10-22T04:11:31.845Z,14.57
2022-10-22T04:13:58.657Z,14.05
2022-10-22T04:16:30.899Z,12.88
2022-10-22T04:18:57.667Z,12.05
2022-10-22T04:21:25.027Z,11.55
2022-10-22T04:23:53.264Z,15.27
2022-10-22T04:26:21.302Z,19.13
2022-10-22T04:28:49.987Z,12.98
2022-10-22T04:31:20.168Z,12.85
2022-10-22T04:33:47.111Z,13.20
2022-10-22T04:36:17.658Z,12.70
2022-10-22T04:38:46.821Z,11.15
2022-10-22T04:41:15.297Z,12.10
2022-10-22T04:43:42.872Z,13.57
2022-10-22T04:46:11.078Z,14.02
2022-10-22T04:48:39.621Z,11.98
2022-10-22T04:51:07.954Z,11.18
2022-10-22T04:53:38.098Z,14.85
2022-10-22T04:56:19.888Z,10.20
2022-10-22T04:58:48.862Z,14.60
2022-10-22T05:01:21.418Z,14.48
2022-10-22T05:03:50.069Z,11.27
2022-10-22T05:06:17.950Z,12.60
2022-10-22T05:08:44.873Z,15.68
2022-10-22T05:11:17.954Z,12.65
2022-10-22T05:13:45.388Z,14.20
2022-10-22T05:16:13.232Z,16.15
2022-10-22T05:18:42.625Z,12.18
2022-10-22T05:21:14.548Z,12.27
2022-10-22T05:23:42.113Z,12.88
2022-10-22T05:26:11.582Z,12.13
2022-10-22T05:28:39.123Z,16.33
2022-10-22T05:31:08.183Z,15.68
2022-10-22T05:33:35.046Z,13.93
2022-10-22T05:36:04.062Z,14.32
2022-10-22T05:38:32.493Z,15.30
2022-10-22T05:41:05.180Z,18.92
2022-10-22T05:43:32.604Z,14.15
2022-10-22T05:46:04.562Z,17.67
2022-10-22T05:51:13.098Z,18.08
2022-10-22T05:53:42.227Z,16.40
2022-10-22T05:56:15.734Z,16.20
2022-10-22T05:58:45.871Z,15.75
2022-10-22T06:01:16.308Z,18.52
2022-10-22T06:03:44.224Z,22.20
2022-10-22T06:06:27.071Z,22.95
2022-10-22T06:08:55.358Z,19.63
2022-10-22T06:11:23.954Z,19.30
2022-10-22T06:13:51.820Z,18.67
2022-10-22T06:16:18.967Z,17.23
2022-10-22T06:18:45.860Z,16.52
2022-10-22T06:21:16.076Z,18.92
2022-10-22T06:23:43.818Z,20.25
2022-10-22T06:26:13.903Z,19.80
2022-10-22T06:28:40.848Z,19.92
2022-10-22T06:31:07.807Z,22.38
2022-10-22T06:33:37.184Z,17.17
2022-10-22T06:36:18.971Z,21.02
2022-10-22T06:38:45.915Z,22.50
2022-10-22T06:41:15.343Z,19.83
2022-10-22T06:43:49.591Z,21.40
2022-10-22T06:46:20.166Z,16.35
2022-10-22T06:49:05.823Z,18.42
2022-10-22T06:51:32.879Z,12.80
2022-10-22T06:53:59.638Z,16.27
2022-10-22T06:56:29.008Z,13.18
2022-10-22T06:58:57.402Z,13.82
2022-10-22T07:01:27.272Z,14.63
2022-10-22T07:03:54.692Z,15.23
2022-10-22T07:06:23.026Z,15.90
2022-10-22T07:08:50.136Z,15.20
2022-10-22T07:11:24.869Z,15.68
2022-10-22T07:13:53.795Z,16.05
2022-10-22T07:16:20.943Z,18.13
2022-10-22T07:18:48.431Z,16.20
2022-10-22T07:21:17.919Z,16.63
2022-10-22T07:23:45.364Z,16.92
2022-10-22T07:26:15.586Z,16.20
2022-10-22T07:28:42.954Z,16.35
2022-10-22T07:31:12.307Z,16.80
2022-10-22T07:34:22.319Z,17.65
2022-10-22T07:37:14.101Z,19.20
2022-10-22T07:40:06.335Z,18.13
2022-10-22T07:42:48.029Z,12.25
2022-10-22T07:45:15.064Z,21.10
2022-10-22T07:47:42.107Z,13.93
2022-10-22T07:50:09.854Z,18.33
2022-10-22T07:52:36.573Z,19.48
2022-10-22T07:55:04.143Z,16.15
2022-10-22T07:57:31.774Z,15.68
2022-10-22T07:59:59.219Z,14.27
2022-10-22T08:02:26.076Z,18.05
2022-10-22T08:04:53.020Z,17.83
2022-10-22T08:07:19.813Z,15.18
2022-10-22T08:09:46.793Z,12.85
2022-10-22T08:12:13.574Z,14.32
2022-10-22T08:14:40.569Z,15.55
2022-10-22T08:17:07.316Z,12.50
2022-10-22T08:19:35.419Z,14.65
2022-10-22T08:22:02.743Z,14.32
2022-10-22T08:24:29.792Z,13.35
2022-10-22T08:26:56.577Z,16.48
2022-10-22T08:29:24.595Z,14.57
2022-10-22T08:31:51.374Z,13.15
2022-10-22T08:34:18.299Z,15.05
2022-10-22T08:36:45.073Z,15.45
2022-10-22T08:39:12.199Z,15.50
2022-10-22T08:42:00.128Z,17.90
2022-10-22T08:44:29.957Z,16.98
2022-10-22T08:47:06.111Z,16.35
2022-10-22T08:49:38.484Z,13.85
2022-10-22T08:52:15.841Z,17.40
2022-10-22T08:54:56.267Z,16.80
2022-10-22T08:57:47.617Z,16.48
2022-10-22T09:00:24.068Z,17.70
2022-10-22T09:03:21.951Z,17.70
2022-10-22T09:06:04.051Z,14.63
2022-10-22T09:08:31.004Z,16.25
2022-10-22T09:11:17.677Z,18.70
2022-10-22T09:13:46.208Z,17.02
2022-10-22T09:16:38.682Z,19.42
2022-10-22T09:19:11.302Z,20.10
2022-10-22T09:22:16.039Z,16.33
2022-10-22T09:24:48.007Z,17.05
2022-10-22T09:27:27.595Z,15.35
2022-10-22T09:29:54.367Z,18.77
2022-10-22T09:32:21.391Z,15.05
2022-10-22T09:34:49.357Z,20.40
2022-10-22T09:37:18.979Z,19.45
2022-10-22T09:39:50.903Z,18.98
2022-10-22T09:42:20.519Z,17.77
2022-10-22T09:44:58.374Z,14.98
2022-10-22T09:48:01.838Z,20.15
2022-10-22T09:50:28.742Z,23.33
2022-10-22T09:53:12.247Z,21.05
2022-10-22T09:55:40.472Z,19.95
2022-10-22T09:58:14.183Z,16.63
2022-10-22T10:00:43.727Z,17.02
2022-10-22T10:03:21.532Z,19.45
2022-10-22T10:05:51.588Z,19.00
2022-10-22T10:08:19.288Z,15.23
2022-10-22T10:10:50.273Z,20.00
2022-10-22T10:13:47.917Z,22.15
2022-10-22T10:16:31.084Z,20.65
2022-10-22T10:19:35.165Z,22.17
2022-10-22T10:22:04.427Z,21.45
2022-10-22T10:24:43.332Z,20.33
2022-10-22T10:27:20.339Z,15.02
2022-10-22T10:30:02.880Z,18.23
2022-10-22T10:32:57.635Z,16.63
2022-10-22T10:35:55.136Z,14.07
2022-10-22T10:38:53.155Z,16.83
2022-10-22T10:41:25.147Z,24.40
2022-10-22T10:44:10.415Z,25.20
2022-10-22T10:46:54.498Z,17.58
2022-10-22T10:49:26.750Z,18.83
2022-10-22T10:51:56.816Z,18.13
2022-10-22T10:54:51.077Z,16.77
2022-10-22T10:57:45.849Z,23.85
2022-10-22T11:00:16.617Z,20.58
2022-10-22T11:03:13.243Z,26.77
2022-10-22T11:06:00.194Z,19.67
2022-10-22T11:08:30.547Z,20.52
2022-10-22T11:13:57.788Z,18.73
2022-10-22T11:16:37.395Z,19.30
2022-10-22T11:19:15.521Z,21.30
2022-10-22T11:21:59.522Z,19.58
2022-10-22T11:24:53.867Z,19.10
2022-10-22T11:27:50.420Z,18.05
2022-10-22T11:30:23.315Z,19.40
2022-10-22T11:32:57.683Z,19.17
2022-10-22T11:35:28.842Z,22.20
2022-10-22T11:37:57.114Z,20.98
2022-10-22T11:40:29.788Z,19.83
2022-10-22T11:43:06.050Z,24.05
2022-10-22T11:45:43.153Z,18.92
2022-10-22T11:48:09.894Z,15.27
2022-10-22T11:50:56.712Z,22.88
2022-10-22T11:53:26.265Z,15.43
2022-10-22T11:55:56.263Z,16.92
2022-10-22T11:58:29.041Z,18.95
2022-10-22T12:00:55.965Z,23.95
2022-10-22T12:03:28.495Z,21.23
2022-10-22T12:06:15.513Z,18.60
2022-10-22T12:08:46.096Z,22.30
2022-10-22T12:11:33.933Z,20.70
2022-10-22T12:14:28.074Z,24.63
2022-10-22T12:17:03.239Z,20.38
2022-10-22T12:19:39.338Z,17.80
2022-10-22T12:22:06.233Z,21.35
2022-10-22T12:24:37.722Z,18.35
2022-10-22T12:27:04.685Z,21.23
2022-10-22T12:29:32.914Z,28.23
2022-10-22T12:32:04.392Z,24.58
2022-10-22T12:34:31.163Z,22.27
2022-10-22T12:36:58.067Z,25.27
2022-10-22T12:39:27.219Z,18.45
2022-10-22T12:41:54.897Z,26.15
2022-10-22T12:44:21.726Z,20.40
2022-10-22T12:46:53.094Z,27.40
2022-10-22T12:49:28.589Z,17.40
2022-10-22T12:51:55.500Z,24.20
2022-10-22T12:54:28.945Z,23.88
2022-10-22T12:59:34.833Z,21.83
2022-10-22T13:02:02.689Z,23.27
2022-10-22T13:04:35.626Z,20.27
2022-10-22T13:07:15.975Z,18.42
2022-10-22T13:09:56.745Z,19.08
2022-10-22T13:12:28.641Z,22.33
2022-10-22T13:14:55.474Z,29.90
2022-10-22T13:17:42.239Z,25.30
2022-10-22T13:20:27.350Z,19.77
2022-10-22T13:23:00.564Z,25.33
2022-10-22T13:25:30.556Z,23.67
2022-10-22T13:28:06.803Z,18.42
2022-10-22T13:30:36.517Z,19.60
2022-10-22T13:33:06.737Z,22.23
2022-10-22T13:35:38.247Z,20.77
2022-10-22T13:38:19.569Z,18.45
2022-10-22T13:40:46.768Z,18.55
2022-10-22T13:43:14.207Z,20.05
2022-10-22T13:45:41.070Z,17.73
2022-10-22T13:48:13.857Z,20.90
2022-10-22T13:50:41.142Z,18.20
2022-10-22T13:53:18.859Z,26.02
2022-10-22T13:55:46.204Z,21.60
2022-10-22T13:58:31.127Z,21.83
2022-10-22T14:00:59.881Z,18.60
2022-10-22T14:03:33.366Z,21.08
2022-10-22T14:06:00.894Z,17.63
2022-10-22T14:08:28.280Z,23.77
2022-10-22T14:10:55.453Z,23.48
2022-10-22T14:13:22.633Z,20.70
2022-10-22T14:15:50.766Z,22.98
2022-10-22T14:18:26.653Z,22.77
2022-10-22T14:20:56.950Z,24.38
2022-10-22T14:23:27.419Z,21.63
2022-10-22T14:25:54.612Z,23.63
2022-10-22T14:28:21.735Z,20.27
2022-10-22T14:30:49.294Z,23.60
2022-10-22T14:33:28.850Z,22.63
2022-10-22T14:35:59.656Z,21.65
2022-10-22T14:38:26.626Z,22.00
2022-10-22T14:40:53.715Z,24.15
2022-10-22T14:43:23.592Z,22.92
2022-10-22T14:45:51.056Z,21.95
2022-10-22T14:50:47.959Z,25.05
2022-10-22T14:53:16.704Z,26.02
2022-10-22T14:55:44.487Z,20.80
2022-10-22T14:58:12.351Z,25.15
2022-10-22T15:00:41.657Z,26.75
2022-10-22T15:03:09.338Z,21.27
2022-10-22T15:05:42.123Z,21.55
2022-10-22T15:08:09.075Z,16.83
2022-10-22T15:10:35.845Z,17.15
2022-10-22T15:13:02.826Z,17.70
2022-10-22T15:15:34.022Z,20.45
2022-10-22T15:18:02.489Z,16.73
2022-10-22T15:20:29.315Z,19.02
2022-10-22T15:22:56.505Z,13.80
2022-10-22T15:25:23.216Z,18.23
2022-10-22T15:27:51.769Z,17.75
2022-10-22T15:30:20.845Z,19.38
2022-10-22T15:32:47.804Z,17.08
2022-10-22T15:35:14.554Z,18.17
2022-10-22T15:37:41.505Z,17.50
2022-10-22T15:40:08.804Z,17.15
2022-10-22T15:42:35.799Z,20.98
2022-10-22T15:45:02.584Z,20.10
2022-10-22T15:47:31.183Z,19.50
2022-10-22T15:49:58.788Z,15.25
2022-10-22T15:52:25.736Z,17.52
2022-10-22T15:54:52.491Z,16.85
2022-10-22T15:57:19.438Z,17.58
2022-10-22T15:59:47.042Z,20.63
2022-10-22T16:02:15.511Z,17.60
2022-10-22T16:04:42.598Z,18.17
2022-10-22T16:07:09.558Z,16.02
2022-10-22T16:09:36.328Z,24.52
2022-10-22T16:12:03.276Z,19.05
2022-10-22T16:14:30.368Z,18.27
2022-10-22T16:16:57.556Z,26.02
2022-10-22T16:19:24.675Z,20.67
2022-10-22T16:21:54.017Z,23.27
2022-10-22T16:24:21.301Z,22.35
2022-10-22T16:26:48.673Z,20.77
2022-10-22T16:29:16.115Z,22.63
2022-10-22T16:31:44.033Z,27.00
2022-10-22T16:34:11.636Z,23.25
2022-10-22T16:36:38.914Z,23.48
2022-10-22T16:39:06.732Z,27.10
2022-10-22T16:41:36.913Z,24.38
2022-10-22T16:44:07.720Z,23.27
2022-10-22T16:46:38.429Z,25.23
2022-10-22T16:49:06.496Z,25.30
2022-10-22T16:51:34.351Z,23.42
2022-10-22T16:54:01.331Z,24.27
2022-10-22T16:56:28.429Z,25.75
2022-10-22T16:58:57.067Z,22.58
2022-10-22T17:01:26.931Z,24.17
2022-10-22T17:03:59.551Z,22.63
2022-10-22T17:06:27.089Z,27.63
2022-10-22T17:08:54.308Z,20.55
2022-10-22T17:11:23.578Z,24.77
2022-10-22T17:13:53.515Z,29.33
2022-10-22T17:16:23.127Z,25.08
2022-10-22T17:18:50.201Z,23.27
2022-10-22T17:21:19.056Z,23.60
2022-10-22T17:23:47.920Z,27.52
2022-10-22T17:26:19.631Z,25.35
2022-10-22T17:28:47.062Z,21.52
2022-10-22T17:31:28.107Z,24.90
2022-10-22T17:33:56.518Z,29.48
2022-10-22T17:36:24.866Z,25.67
2022-10-22T17:38:54.467Z,24.17
2022-10-22T17:41:24.710Z,27.17
2022-10-22T17:43:51.680Z,30.98
2022-10-22T17:46:27.326Z,28.25
2022-10-22T17:48:59.822Z,27.08
2022-10-22T17:51:29.588Z,28.13
2022-10-22T17:53:56.992Z,26.58
2022-10-22T17:56:27.943Z,26.23
2022-10-22T17:58:55.966Z,26.38
2022-10-22T18:01:25.501Z,27.48
2022-10-22T18:03:54.093Z,27.98
2022-10-22T18:06:22.166Z,28.77
2022-10-22T18:08:49.508Z,27.30
2022-10-22T18:11:20.724Z,26.10
2022-10-22T18:13:56.071Z,26.02
2022-10-22T18:16:24.813Z,23.75
2022-10-22T18:18:54.596Z,23.05
2022-10-22T18:21:24.031Z,34.15
2022-10-22T18:23:51.153Z,28.02
2022-10-22T18:26:20.346Z,27.90
2022-10-22T18:28:49.705Z,28.38
2022-10-22T18:31:22.502Z,24.17
2022-10-22T18:33:50.029Z,27.02
2022-10-22T18:36:20.894Z,24.85
2022-10-22T18:38:56.332Z,21.17
2022-10-22T18:41:24.258Z,23.55
2022-10-22T18:43:59.255Z,26.88
2022-10-22T18:46:28.223Z,25.77
2022-10-22T18:48:57.567Z,24.60
2022-10-22T18:51:26.623Z,26.15
2022-10-22T18:54:05.877Z,23.00
2022-10-22T18:56:43.885Z,25.08
2022-10-22T18:59:21.987Z,31.83
2022-10-22T19:01:49.339Z,24.20
2022-10-22T19:04:16.288Z,28.38
2022-10-22T19:06:45.697Z,24.48
2022-10-22T19:09:14.715Z,25.23
2022-10-22T19:11:43.585Z,30.98
2022-10-22T19:14:10.561Z,25.45
2022-10-22T19:16:37.668Z,24.92
2022-10-22T19:19:07.045Z,26.08
2022-10-22T19:21:35.277Z,27.33
2022-10-22T19:24:02.892Z,24.15
2022-10-22T19:26:34.136Z,30.17
2022-10-22T19:29:02.868Z,25.00
2022-10-22T19:31:31.232Z,25.13
2022-10-22T19:34:00.008Z,29.90
2022-10-22T19:36:28.761Z,26.95
2022-10-22T19:38:56.304Z,27.73
2022-10-22T19:41:26.078Z,30.45
2022-10-22T19:43:54.415Z,27.67
2022-10-22T19:46:23.077Z,25.20
2022-10-22T19:48:53.214Z,30.83
2022-10-22T19:51:22.693Z,29.13
2022-10-22T19:53:49.989Z,27.80
2022-10-22T19:56:19.568Z,27.15
2022-10-22T19:58:46.733Z,31.20
2022-10-22T20:01:16.166Z,28.13
2022-10-22T20:03:43.860Z,27.88
2022-10-22T20:06:12.346Z,28.65
2022-10-22T20:08:39.641Z,29.85
2022-10-22T20:11:10.840Z,31.42
2022-10-22T20:16:10.162Z,34.42
2022-10-22T20:18:38.528Z,33.72
2022-10-22T20:21:11.927Z,33.20
2022-10-22T20:23:38.934Z,31.48
2022-10-22T20:26:06.246Z,31.77
2022-10-22T20:28:33.032Z,32.53
2022-10-22T20:31:00.077Z,33.03
2022-10-22T20:33:26.875Z,30.15
2022-10-22T20:36:01.413Z,27.25
2022-10-22T20:38:28.967Z,31.85
2022-10-22T20:41:22.841Z,35.50
2022-10-22T20:43:51.363Z,30.55
2022-10-22T20:46:23.504Z,29.00
2022-10-22T20:48:52.244Z,30.90
2022-10-22T20:51:19.737Z,33.10
2022-10-22T20:53:46.712Z,35.03
2022-10-22T20:56:14.355Z,31.48
2022-10-22T20:58:47.615Z,34.95
2022-10-22T21:03:50.728Z,27.02
2022-10-22T21:06:21.049Z,27.90
2022-10-22T21:08:47.896Z,29.35
2022-10-22T21:11:14.874Z,28.25
2022-10-22T21:13:41.633Z,34.70
2022-10-22T21:16:12.596Z,31.73
2022-10-22T21:18:39.382Z,29.35
2022-10-22T21:21:07.719Z,30.17
2022-10-22T21:23:35.872Z,35.70
2022-10-22T21:26:03.206Z,31.92
2022-10-22T21:28:34.420Z,29.33
2022-10-22T21:31:06.114Z,28.48
2022-10-22T21:33:37.246Z,30.80
2022-10-22T21:36:06.776Z,31.48
2022-10-22T21:38:34.579Z,32.72
2022-10-22T21:41:09.199Z,33.88
2022-10-22T21:43:40.887Z,30.83
2022-10-22T21:46:10.790Z,32.50
2022-10-22T21:48:38.695Z,28.50
2022-10-22T21:51:08.884Z,32.08
2022-10-22T21:53:36.347Z,33.03
2022-10-22T21:56:04.301Z,28.48
2022-10-22T21:58:31.295Z,33.40
2022-10-22T22:00:58.565Z,32.95
2022-10-22T22:03:25.371Z,30.13
2022-10-22T22:05:58.720Z,31.85
2022-10-22T22:08:25.945Z,30.30
2022-10-22T22:10:53.753Z,39.42
2022-10-22T22:13:24.899Z,31.48
2022-10-22T22:15:52.587Z,34.75
2022-10-22T22:18:20.224Z,35.00
2022-10-22T22:20:47.188Z,32.47
2022-10-22T22:23:13.936Z,30.73
2022-10-22T22:25:40.891Z,34.25
2022-10-22T22:28:07.660Z,31.25
2022-10-22T22:30:34.610Z,35.25
2022-10-22T22:33:01.345Z,29.67
2022-10-22T22:35:28.889Z,27.67
2022-10-22T22:37:55.763Z,28.60
2022-10-22T22:40:23.456Z,34.80
2022-10-22T22:42:50.224Z,32.83
2022-10-22T22:45:17.263Z,32.42
2022-10-22T22:47:44.230Z,32.45
2022-10-22T22:50:11.471Z,33.72
2022-10-22T22:52:38.321Z,32.38
2022-10-22T22:55:06.043Z,33.28
2022-10-22T22:57:32.820Z,32.10
2022-10-22T22:59:59.759Z,30.83
2022-10-22T23:02:26.559Z,33.20
2022-10-22T23:04:53.480Z,34.83
2022-10-22T23:07:20.235Z,28.88
2022-10-22T23:09:47.268Z,31.70
2022-10-22T23:12:14.189Z,33.10
2022-10-22T23:14:41.150Z,37.20
2022-10-22T23:17:07.907Z,32.53
2022-10-22T23:19:34.868Z,33.67
2022-10-22T23:22:01.676Z,35.40
2022-10-22T23:24:30.044Z,32.75
2022-10-22T23:27:00.995Z,32.55
2022-10-22T23:29:30.202Z,36.90
2022-10-22T23:32:00.195Z,31.35
2022-10-22T23:34:27.977Z,32.05
2022-10-22T23:36:55.935Z,36.08
2022-10-22T23:39:25.122Z,33.40
2022-10-22T23:41:53.204Z,34.03
2022-10-22T23:44:21.794Z,36.42
2022-10-22T23:46:49.352Z,38.35
2022-10-22T23:49:17.075Z,37.80
2022-10-22T23:51:44.106Z,38.10
2022-10-22T23:54:13.886Z,36.45
2022-10-22T23:56:40.893Z,33.97
2022-10-22T23:59:08.913Z,33.83
